Time;durP1;ratioP1;P1;durP2;ratioP2;P2;SDS_P1;SDS_P2;PMS_P1;PMS_P2;Temp;Humidity;BMP_temperature;BMP_pressure;BME280_temperature;BME280_humidity;BME280_pressure;Samples;Min_cycle;Max_cycle;Signal;HPM_P1;HPM_P2
2024/03/11 00:00:55;;;;;;;;;;;;;;;;;;5057539;28;20343;-71
2024/03/11 00:03:21;;;;;;;;;;;;;;;;;;5057536;28;19912;-71
2024/03/11 00:05:47;;;;;;;;;;;;;;;;;;5055785;28;19916;-71
2024/03/11 00:08:16;;;;;;;;;;;;;;;;;;5057372;28;19963;-70
2024/03/11 00:10:44;;;;;;;;;;;;;;;;;;5056985;28;20015;-72
2024/03/11 00:13:10;;;;;;;;;;;;;;;;;;5057596;28;19959;-71
2024/03/11 00:15:36;;;;;;;;;;;;;;;;;;5057203;28;20341;-71
2024/03/11 00:18:02;;;;;;;;;;;;;;;;;;5055525;28;20003;-71
2024/03/11 00:20:28;;;;;;;;;;;;;;;;;;5057216;28;19909;-71
2024/03/11 00:22:54;;;;;;;;;;;;;;;;;;5057160;28;20369;-71
2024/03/11 00:25:20;;;;;;;;;;;;;;;;;;5056874;28;19962;-71
2024/03/11 00:27:46;;;;;;;;;;;;;;;;;;5057050;28;19909;-71
2024/03/11 00:30:12;;;;;;;;;;;;;;;;;;5057251;28;19909;-71
2024/03/11 00:32:39;;;;;;;;;;;;;;;;;;5057608;28;20369;-71
2024/03/11 00:35:06;;;;;;;;;;;;;;;;;;5056922;28;19913;-71
2024/03/11 00:37:32;;;;;;;;;;;;;;;;;;5056624;28;20262;-71
2024/03/11 00:39:58;;;;;;;;;;;;;;;;;;5056712;28;19956;-71
2024/03/11 00:42:24;;;;;;;;;;;;;;;;;;5056716;28;19955;-71
2024/03/11 00:44:50;;;;;;;;;;;;;;;;;;5056706;28;19909;-71
2024/03/11 00:47:18;;;;;;;;;;;;;;;;;;5056246;28;20447;-71
2024/03/11 00:49:44;;;;;;;;;;;;;;;;;;5056593;28;20003;-71
2024/03/11 00:52:10;;;;;;;;;;;;;;;;;;5056615;28;19956;-71
2024/03/11 00:54:36;;;;;;;;;;;;;;;;;;5056143;28;20361;-71
2024/03/11 00:57:02;;;;;;;;;;;;;;;;;;5056402;28;20000;-71
2024/03/11 00:59:28;;;;;;;;;;;;;;;;;;5056456;28;20388;-71
2024/03/11 01:01:54;;;;;;;;;;;;;;;;;;5056016;28;19909;-70
2024/03/11 01:04:21;;;;;;;;;;;;;;;;;;5056363;28;19909;-71
2024/03/11 01:06:47;;;;;;;;;;;;;;;;;;5056285;28;19915;-71
2024/03/11 01:09:13;;;;;;;;;;;;;;;;;;5055520;28;19909;-71
2024/03/11 01:11:39;;;;;;;;;;;;;;;;;;5056250;28;19909;-71
2024/03/11 01:14:05;;;;;;;;;;;;;;;;;;5055785;28;19913;-71
2024/03/11 01:16:31;;;;;;;;;;;;;;;;;;5056094;28;20440;-71
2024/03/11 01:18:58;;;;;;;;;;;;;;;;;;5056362;28;19991;-71
2024/03/11 01:21:24;;;;;;;;;;;;;;;;;;5055767;28;19908;-71
2024/03/11 01:23:50;;;;;;;;;;;;;;;;;;5055989;28;19908;-71
2024/03/11 01:26:16;;;;;;;;;;;;;;;;;;5055992;28;20011;-71
2024/03/11 01:28:42;;;;;;;;;;;;;;;;;;5055839;28;19909;-71
2024/03/11 01:31:10;;;;;;;;;;;;;;;;;;5056125;28;20285;-71
2024/03/11 01:33:36;;;;;;;;;;;;;;;;;;5055838;28;19916;-71
2024/03/11 01:36:02;;;;;;;;;;;;;;;;;;5055134;28;19943;-71
2024/03/11 01:38:28;;;;;;;;;;;;;;;;;;5055892;28;20369;-72
2024/03/11 01:40:55;;;;;;;;;;;;;;;;;;5055648;28;20003;-71
2024/03/11 01:43:21;;;;;;;;;;;;;;;;;;5055347;28;20000;-71
2024/03/11 01:45:47;;;;;;;;;;;;;;;;;;5055717;28;19948;-71
2024/03/11 01:48:13;;;;;;;;;;;;;;;;;;5055608;28;19945;-71
2024/03/11 01:50:39;;;;;;;;;;;;;;;;;;5055098;28;20007;-71
2024/03/11 01:53:05;;;;;;;;;;;;;;;;;;5055547;28;19956;-71
2024/03/11 01:55:31;;;;;;;;;;;;;;;;;;5055589;28;19909;-71
2024/03/11 01:57:57;;;;;;;;;;;;;;;;;;5054815;28;19917;-71
2024/03/11 02:00:23;;;;;;;;;;;;;;;;;;5055636;28;20353;-71
2024/03/11 02:02:51;;;;;;;;;;;;;;;;;;5055292;28;20273;-71
2024/03/11 02:05:19;;;;;;;;;;;;;;;;;;5054789;28;20009;-71
2024/03/11 02:07:45;;;;;;;;;;;;;;;;;;5055157;28;19919;-71
2024/03/11 02:10:14;;;;;;;;;;;;;;;;;;5055356;28;20025;-71
2024/03/11 02:12:45;;;;;;;;;;;;;;;;;;5055751;28;19909;-71
2024/03/11 02:15:11;;;;;;;;;;;;;;;;;;5055074;28;20353;-71
2024/03/11 02:17:38;;;;;;;;;;;;;;;;;;5054459;28;19923;-68
2024/03/11 02:20:04;;;;;;;;;;;;;;;;;;5053018;28;20015;-71
2024/03/11 02:22:30;;;;;;;;;;;;;;;;;;5054712;28;20381;-71
2024/03/11 02:24:56;;;;;;;;;;;;;;;;;;5053191;28;20277;-71
2024/03/11 02:27:22;;;;;;;;;;;;;;;;;;5053549;28;20000;-71
2024/03/11 02:29:48;;;;;;;;;;;;;;;;;;5054722;28;19916;-71
2024/03/11 02:32:14;;;;;;;;;;;;;;;;;;5054351;28;20373;-71
2024/03/11 02:34:40;;;;;;;;;;;;;;;;;;5054921;28;20362;-71
2024/03/11 02:37:07;;;;;;;;;;;;;;;;;;5054373;28;20374;-71
2024/03/11 02:39:33;;;;;;;;;;;;;;;;;;5054153;28;20319;-71
2024/03/11 02:41:59;;;;;;;;;;;;;;;;;;5054506;28;19909;-71
2024/03/11 02:44:25;;;;;;;;;;;;;;;;;;5054574;28;19919;-71
2024/03/11 02:46:51;;;;;;;;;;;;;;;;;;5054248;28;19938;-71
2024/03/11 02:49:18;;;;;;;;;;;;;;;;;;5054361;28;19909;-69
2024/03/11 02:51:44;;;;;;;;;;;;;;;;;;5054395;28;19915;-69
2024/03/11 02:54:10;;;;;;;;;;;;;;;;;;5053856;28;19916;-69
2024/03/11 02:56:37;;;;;;;;;;;;;;;;;;5054161;28;19917;-69
2024/03/11 02:59:03;;;;;;;;;;;;;;;;;;5054139;28;19916;-69
2024/03/11 03:01:29;;;;;;;;;;;;;;;;;;5053874;28;20026;-70
2024/03/11 03:03:54;;;;;;;;;;;;;;;;;;5054507;28;20364;-70
2024/03/11 03:06:21;;;;;;;;;;;;;;;;;;5052852;28;19908;-70
2024/03/11 03:08:47;;;;;;;;;;;;;;;;;;5053700;28;19908;-70
2024/03/11 03:11:13;;;;;;;;;;;;;;;;;;5052792;28;19916;-71
2024/03/11 03:13:39;;;;;;;;;;;;;;;;;;5053552;28;19956;-70
2024/03/11 03:16:06;;;;;;;;;;;;;;;;;;5053921;28;19916;-70
2024/03/11 03:18:34;;;;;;;;;;;;;;;;;;5053888;28;19913;-70
2024/03/11 03:21:00;;;;;;;;;;;;;;;;;;5053545;28;20417;-70
2024/03/11 03:23:27;;;;;;;;;;;;;;;;;;5054127;28;19908;-72
2024/03/11 03:25:53;;;;;;;;;;;;;;;;;;5053750;28;20023;-70
2024/03/11 03:28:18;;;;;;;;;;;;;;;;;;5053655;28;20378;-70
2024/03/11 03:30:46;;;;;;;;;;;;;;;;;;5053902;28;19912;-70
2024/03/11 03:33:12;;;;;;;;;;;;;;;;;;5053613;28;19916;-70
2024/03/11 03:35:38;;;;;;;;;;;;;;;;;;5051879;28;19956;-70
2024/03/11 03:38:04;;;;;;;;;;;;;;;;;;5052423;28;19985;-70
2024/03/11 03:40:30;;;;;;;;;;;;;;;;;;5053890;28;19909;-70
2024/03/11 03:42:57;;;;;;;;;;;;;;;;;;5053342;28;20349;-70
2024/03/11 03:45:23;;;;;;;;;;;;;;;;;;5053910;28;19916;-70
2024/03/11 03:47:49;;;;;;;;;;;;;;;;;;5053683;28;19909;-70
2024/03/11 03:50:15;;;;;;;;;;;;;;;;;;5052003;28;20007;-70
2024/03/11 03:52:41;;;;;;;;;;;;;;;;;;5053868;28;19999;-70
2024/03/11 03:55:11;;;;;;;;;;;;;;;;;;5053584;28;19916;-70
2024/03/11 03:57:37;;;;;;;;;;;;;;;;;;5053092;28;19963;-71
2024/03/11 04:00:05;;;;;;;;;;;;;;;;;;5053506;28;19909;-71
2024/03/11 04:02:31;;;;;;;;;;;;;;;;;;5053511;28;19913;-71
2024/03/11 04:04:57;;;;;;;;;;;;;;;;;;5053088;28;20342;-71
2024/03/11 04:07:23;;;;;;;;;;;;;;;;;;5053917;28;19945;-71
2024/03/11 04:09:49;;;;;;;;;;;;;;;;;;5051798;28;19916;-71
2024/03/11 04:12:16;;;;;;;;;;;;;;;;;;5053428;28;20380;-72
2024/03/11 04:14:42;;;;;;;;;;;;;;;;;;5052503;28;20369;-71
2024/03/11 04:17:08;;;;;;;;;;;;;;;;;;5053037;28;19931;-72
2024/03/11 04:19:35;;;;;;;;;;;;;;;;;;5053315;28;19913;-71
2024/03/11 04:22:03;;;;;;;;;;;;;;;;;;5053369;28;19909;-71
2024/03/11 04:24:31;;;;;;;;;;;;;;;;;;5053163;28;19915;-71
2024/03/11 04:26:59;;;;;;;;;;;;;;;;;;5053260;28;19909;-69
2024/03/11 04:29:27;;;;;;;;;;;;;;;;;;5053274;28;19920;-71
2024/03/11 04:31:53;;;;;;;;;;;;;;;;;;5052930;28;20284;-71
2024/03/11 04:34:20;;;;;;;;;;;;;;;;;;5053187;28;19909;-72
2024/03/11 04:36:46;;;;;;;;;;;;;;;;;;5051695;28;20020;-71
2024/03/11 04:39:14;;;;;;;;;;;;;;;;;;5052886;28;20343;-72
2024/03/11 04:41:40;;;;;;;;;;;;;;;;;;5053332;28;19909;-72
2024/03/11 04:44:06;;;;;;;;;;;;;;;;;;5054722;28;19909;-71
2024/03/11 04:46:31;;;;;;;;;;;;;;;;;;5055021;28;19916;-72
2024/03/11 04:48:58;;;;;;;;;;;;;;;;;;5055478;28;19909;-71
2024/03/11 04:51:24;;;;;;;;;;;;;;;;;;5056653;28;19909;-72
2024/03/11 04:53:51;;;;;;;;;;;;;;;;;;5056237;28;19909;-71
2024/03/11 04:56:17;;;;;;;;;;;;;;;;;;5056533;28;20296;-71
2024/03/11 04:58:43;;;;;;;;;;;;;;;;;;5056472;28;19913;-71
2024/03/11 05:01:09;;;;;;;;;;;;;;;;;;5056111;28;19923;-71
2024/03/11 05:03:35;;;;;;;;;;;;;;;;;;5055154;28;19913;-72
2024/03/11 05:06:01;;;;;;;;;;;;;;;;;;5056506;28;20430;-72
2024/03/11 05:08:27;;;;;;;;;;;;;;;;;;5056594;28;20423;-71
2024/03/11 05:10:53;;;;;;;;;;;;;;;;;;5055025;28;19995;-71
2024/03/11 05:13:19;;;;;;;;;;;;;;;;;;5055801;28;20358;-71
2024/03/11 05:15:47;;;;;;;;;;;;;;;;;;5056151;28;19913;-71
2024/03/11 05:18:13;;;;;;;;;;;;;;;;;;5056121;28;19920;-71
2024/03/11 05:20:39;;;;;;;;;;;;;;;;;;5055717;28;19909;-71
2024/03/11 05:23:06;;;;;;;;;;;;;;;;;;5056242;28;19908;-71
2024/03/11 05:25:32;;;;;;;;;;;;;;;;;;5056018;28;19909;-71
2024/03/11 05:27:58;;;;;;;;;;;;;;;;;;5055531;28;19909;-71
2024/03/11 05:30:24;;;;;;;;;;;;;;;;;;5055940;28;19916;-71
2024/03/11 05:32:50;;;;;;;;;;;;;;;;;;5055987;28;19909;-71
2024/03/11 05:35:17;;;;;;;;;;;;;;;;;;5054102;28;19991;-71
2024/03/11 05:37:43;;;;;;;;;;;;;;;;;;5056038;28;19964;-71
2024/03/11 05:40:11;;;;;;;;;;;;;;;;;;5054637;28;19916;-71
2024/03/11 05:42:38;;;;;;;;;;;;;;;;;;5053507;28;19916;-71
2024/03/11 05:45:04;;;;;;;;;;;;;;;;;;5054033;28;20014;-71
2024/03/11 05:47:30;;;;;;;;;;;;;;;;;;5053811;28;19927;-71
2024/03/11 05:49:56;;;;;;;;;;;;;;;;;;5053800;28;19909;-70
2024/03/11 05:52:24;;;;;;;;;;;;;;;;;;5054601;28;19916;-70
2024/03/11 05:54:50;;;;;;;;;;;;;;;;;;5054634;28;19916;-70
2024/03/11 05:57:22;;;;;;;;;;;;;;;;;;5054585;28;19924;-70
2024/03/11 05:59:48;;;;;;;;;;;;;;;;;;5055419;28;19992;-70
2024/03/11 06:02:14;;;;;;;;;;;;;;;;;;5055286;28;19959;-70
2024/03/11 06:04:40;;;;;;;;;;;;;;;;;;5053590;28;19909;-69
2024/03/11 06:07:06;;;;;;;;;;;;;;;;;;5053872;28;19954;-71
2024/03/11 06:09:35;;;;;;;;;;;;;;;;;;5053851;28;19909;-72
2024/03/11 06:12:02;;;;;;;;;;;;;;;;;;5053232;28;19920;-69
2024/03/11 06:14:28;;;;;;;;;;;;;;;;;;5054738;28;19967;-71
2024/03/11 06:16:54;;;;;;;;;;;;;;;;;;5054071;28;19971;-72
2024/03/11 06:19:21;;;;;;;;;;;;;;;;;;5054804;28;19916;-71
2024/03/11 06:21:48;;;;;;;;;;;;;;;;;;5052743;28;19948;-72
2024/03/11 06:24:14;;;;;;;;;;;;;;;;;;5052527;28;19923;-71
2024/03/11 06:26:40;;;;;;;;;;;;;;;;;;5050293;28;19909;-70
2024/03/11 06:29:06;;;;;;;;;;;;;;;;;;5042108;28;20008;-70
2024/03/11 06:31:33;;;;;;;;;;;;;;;;;;5034331;28;19936;-72
2024/03/11 06:33:59;;;;;;;;;;;;;;;;;;5049421;28;19913;-70
2024/03/11 06:36:25;;;;;;;;;;;;;;;;;;5051042;28;19925;-70
2024/03/11 06:38:53;;;;;;;;;;;;;;;;;;5053409;28;19962;-69
2024/03/11 06:41:21;;;;;;;;;;;;;;;;;;5044316;28;20472;-66
2024/03/11 06:43:47;;;;;;;;;;;;;;;;;;5038490;28;19909;-66
2024/03/11 06:46:13;;;;;;;;;;;;;;;;;;5052159;28;19966;-65
2024/03/11 06:48:40;;;;;;;;;;;;;;;;;;5051935;28;19919;-66
2024/03/11 06:51:06;;;;;;;;;;;;;;;;;;5051359;28;19956;-66
2024/03/11 06:53:32;;;;;;;;;;;;;;;;;;5029487;28;19959;-67
2024/03/11 06:56:00;;;;;;;;;;;;;;;;;;5049311;28;19920;-64
2024/03/11 06:58:26;;;;;;;;;;;;;;;;;;5044633;28;20401;-67
2024/03/11 07:00:52;;;;;;;;;;;;;;;;;;5051113;28;19919;-66
2024/03/11 07:03:18;;;;;;;;;;;;;;;;;;5052236;28;19962;-67
2024/03/11 07:05:44;;;;;;;;;;;;;;;;;;5050901;28;19967;-66
2024/03/11 07:08:11;;;;;;;;;;;;;;;;;;5052585;28;19948;-65
2024/03/11 07:10:37;;;;;;;;;;;;;;;;;;5039712;28;19924;-69
2024/03/11 07:13:04;;;;;;;;;;;;;;;;;;5050585;28;19924;-67
2024/03/11 07:15:29;;;;;;;;;;;;;;;;;;5051053;28;19913;-67
2024/03/11 07:17:58;;;;;;;;;;;;;;;;;;5047971;28;19932;-65
2024/03/11 07:20:29;;;;;;;;;;;;;;;;;;5050749;28;20023;-66
2024/03/11 07:23:00;;;;;;;;;;;;;;;;;;5043194;28;19917;-66
2024/03/11 07:25:27;;;;;;;;;;;;;;;;;;5038911;28;20386;-66
2024/03/11 07:27:54;;;;;;;;;;;;;;;;;;5051096;28;19909;-66
2024/03/11 07:30:24;;;;;;;;;;;;;;;;;;5052111;28;19975;-66
2024/03/11 07:32:50;;;;;;;;;;;;;;;;;;5059383;28;19912;-67
2024/03/11 07:35:16;;;;;;;;;;;;;;;;;;5052544;28;19944;-66
2024/03/11 07:37:42;;;;;;;;;;;;;;;;;;5045229;28;20010;-67
2024/03/11 07:40:11;;;;;;;;;;;;;;;;;;5052454;28;19908;-65
2024/03/11 07:42:37;;;;;;;;;;;;;;;;;;5051990;28;19920;-67
2024/03/11 07:45:04;;;;;;;;;;;;;;;;;;5052374;28;20308;-67
2024/03/11 07:47:29;;;;;;;;;;;;;;;;;;5047544;28;19963;-66
2024/03/11 07:49:58;;;;;;;;;;;;;;;;;;5049066;28;19956;-66
2024/03/11 07:52:24;;;;;;;;;;;;;;;;;;5047223;28;19915;-66
2024/03/11 07:54:50;;;;;;;;;;;;;;;;;;5041980;28;19999;-66
2024/03/11 07:57:16;;;;;;;;;;;;;;;;;;5037095;28;19917;-68
2024/03/11 07:59:43;;;;;;;;;;;;;;;;;;5050215;28;19940;-65
2024/03/11 08:02:09;;;;;;;;;;;;;;;;;;5049560;28;19963;-67
2024/03/11 08:04:35;;;;;;;;;;;;;;;;;;5050736;28;19913;-66
2024/03/11 08:07:03;;;;;;;;;;;;;;;;;;5048287;28;19924;-66
2024/03/11 08:09:30;;;;;;;;;;;;;;;;;;5049923;28;20285;-66
2024/03/11 08:11:57;;;;;;;;;;;;;;;;;;5050202;28;20308;-66
2024/03/11 08:14:23;;;;;;;;;;;;;;;;;;5051977;28;19915;-67
2024/03/11 08:16:51;;;;;;;;;;;;;;;;;;5051290;28;19912;-65
2024/03/11 08:19:17;;;;;;;;;;;;;;;;;;5053379;28;19917;-66
2024/03/11 08:21:43;;;;;;;;;;;;;;;;;;5052289;28;20337;-68
2024/03/11 08:24:11;;;;;;;;;;;;;;;;;;5046336;28;19920;-69
2024/03/11 08:26:37;;;;;;;;;;;;;;;;;;5048904;28;19920;-68
2024/03/11 08:29:03;;;;;;;;;;;;;;;;;;5051040;28;19909;-67
2024/03/11 08:31:33;;;;;;;;;;;;;;;;;;5053250;28;19973;-66
2024/03/11 08:34:00;;;;;;;;;;;;;;;;;;5054157;28;19982;-66
2024/03/11 08:36:27;;;;;;;;;;;;;;;;;;5051177;28;19920;-68
2024/03/11 08:38:53;;;;;;;;;;;;;;;;;;5045810;28;20019;-67
2024/03/11 08:41:19;;;;;;;;;;;;;;;;;;5053054;28;20326;-67
2024/03/11 08:43:45;;;;;;;;;;;;;;;;;;5052661;28;19917;-68
2024/03/11 08:46:11;;;;;;;;;;;;;;;;;;5053059;28;20011;-67
2024/03/11 08:48:37;;;;;;;;;;;;;;;;;;5053386;28;19913;-69
2024/03/11 08:51:04;;;;;;;;;;;;;;;;;;5053006;28;19913;-69
2024/03/11 08:53:32;;;;;;;;;;;;;;;;;;5049280;28;19917;-68
2024/03/11 08:55:58;;;;;;;;;;;;;;;;;;5047034;28;19921;-69
2024/03/11 08:58:24;;;;;;;;;;;;;;;;;;5049045;28;19995;-68
2024/03/11 09:00:53;;;;;;;;;;;;;;;;;;5052724;28;19999;-67
2024/03/11 09:03:20;;;;;;;;;;;;;;;;;;5051824;28;19967;-67
2024/03/11 09:05:46;;;;;;;;;;;;;;;;;;5050051;28;19919;-67
2024/03/11 09:08:12;;;;;;;;;;;;;;;;;;5046529;28;19920;-68
2024/03/11 09:10:38;;;;;;;;;;;;;;;;;;5050652;28;19962;-69
2024/03/11 09:13:04;;;;;;;;;;;;;;;;;;5041865;28;19924;-67
2024/03/11 09:15:30;;;;;;;;;;;;;;;;;;5047845;28;19917;-68
2024/03/11 09:17:56;;;;;;;;;;;;;;;;;;5051335;28;19978;-68
2024/03/11 09:20:26;;;;;;;;;;;;;;;;;;5050392;28;19917;-70
2024/03/11 09:22:53;;;;;;;;;;;;;;;;;;5045183;28;19917;-65
2024/03/11 09:25:22;;;;;;;;;;;;;;;;;;5050033;28;19913;-68
2024/03/11 09:27:48;;;;;;;;;;;;;;;;;;5050907;28;19913;-67
2024/03/11 09:30:16;;;;;;;;;;;;;;;;;;5049447;28;19995;-69
2024/03/11 09:32:44;;;;;;;;;;;;;;;;;;5041323;28;19916;-68
2024/03/11 09:35:12;;;;;;;;;;;;;;;;;;5047071;28;20712;-68
2024/03/11 09:37:38;;;;;;;;;;;;;;;;;;5051912;28;19932;-71
2024/03/11 09:40:16;;;;;;;;;;;;;;;;;;5038050;28;19916;-69
2024/03/11 09:42:42;;;;;;;;;;;;;;;;;;5032199;28;19920;-70
2024/03/11 09:45:10;;;;;;;;;;;;;;;;;;5049745;28;19909;-70
2024/03/11 09:47:36;;;;;;;;;;;;;;;;;;5047448;28;19909;-71
2024/03/11 09:50:02;;;;;;;;;;;;;;;;;;5045391;28;19917;-70
2024/03/11 09:52:29;;;;;;;;;;;;;;;;;;5050084;28;19912;-71
2024/03/11 09:54:55;;;;;;;;;;;;;;;;;;5032087;28;20566;-70
2024/03/11 09:57:25;;;;;;;;;;;;;;;;;;5050170;28;20023;-70
2024/03/11 09:59:51;;;;;;;;;;;;;;;;;;5049480;28;19913;-70
2024/03/11 10:02:17;;;;;;;;;;;;;;;;;;5050233;28;19912;-71
2024/03/11 10:04:44;;;;;;;;;;;;;;;;;;5048597;28;19913;-67
2024/03/11 10:07:10;;;;;;;;;;;;;;;;;;5051894;28;19947;-68
2024/03/11 10:09:45;;;;;;;;;;;;;;;;;;5053363;28;19952;-68
2024/03/11 10:12:11;;;;;;;;;;;;;;;;;;5047683;28;19917;-68
2024/03/11 10:14:38;;;;;;;;;;;;;;;;;;5045789;28;19928;-67
2024/03/11 10:17:04;;;;;;;;;;;;;;;;;;5047154;28;19921;-67
2024/03/11 10:19:30;;;;;;;;;;;;;;;;;;5044364;28;19965;-69
2024/03/11 10:21:56;;;;;;;;;;;;;;;;;;5047163;28;20262;-69
2024/03/11 10:24:23;;;;;;;;;;;;;;;;;;5044032;28;19974;-67
2024/03/11 10:26:50;;;;;;;;;;;;;;;;;;5048216;28;19913;-67
2024/03/11 10:29:16;;;;;;;;;;;;;;;;;;5034510;28;19909;-67
2024/03/11 10:31:45;;;;;;;;;;;;;;;;;;5031028;28;19912;-67
2024/03/11 10:34:12;;;;;;;;;;;;;;;;;;5044014;28;19917;-68
2024/03/11 10:36:41;;;;;;;;;;;;;;;;;;5040830;28;19975;-67
2024/03/11 10:39:30;;;;;;;;;;;;;;;;;;5050547;28;20246;-66
2024/03/11 10:42:01;;;;;;;;;;;;;;;;;;5044786;28;19944;-67
2024/03/11 10:44:30;;;;;;;;;;;;;;;;;;5038248;28;19916;-68
2024/03/11 10:47:02;;;;;;;;;;;;;;;;;;5045141;28;19913;-69
2024/03/11 10:49:28;;;;;;;;;;;;;;;;;;5048769;28;19917;-69
2024/03/11 10:51:55;;;;;;;;;;;;;;;;;;5047293;28;19913;-69
2024/03/11 10:54:23;;;;;;;;;;;;;;;;;;5048902;28;19960;-69
2024/03/11 10:56:49;;;;;;;;;;;;;;;;;;5042999;28;20396;-68
2024/03/11 10:59:15;;;;;;;;;;;;;;;;;;5045476;28;19955;-69
2024/03/11 11:01:42;;;;;;;;;;;;;;;;;;5039274;28;19916;-68
2024/03/11 11:04:14;;;;;;;;;;;;;;;;;;5048397;28;19913;-71
2024/03/11 11:06:42;;;;;;;;;;;;;;;;;;5041703;28;19917;-69
2024/03/11 11:09:11;;;;;;;;;;;;;;;;;;5048189;28;20326;-69
2024/03/11 11:12:03;;;;;;;;;;;;;;;;;;5051217;28;19954;-69
2024/03/11 11:14:27;;;;;;;;;;;;;;;;;;5047791;28;19960;-69
2024/03/11 11:16:55;;;;;;;;;;;;;;;;;;5048851;28;19920;-68
2024/03/11 11:19:24;;;;;;;;;;;;;;;;;;5047288;28;19913;-68
2024/03/11 11:21:53;;;;;;;;;;;;;;;;;;5048301;28;19919;-68
2024/03/11 11:24:21;;;;;;;;;;;;;;;;;;5045299;28;20011;-67
2024/03/11 11:26:47;;;;;;;;;;;;;;;;;;5043459;28;19948;-68
2024/03/11 11:29:13;;;;;;;;;;;;;;;;;;5044056;28;20392;-69
2024/03/11 11:31:38;;;;;;;;;;;;;;;;;;5050152;28;19913;-69
2024/03/11 11:34:12;;;;;;;;;;;;;;;;;;5048715;28;19970;-69
2024/03/11 11:36:39;;;;;;;;;;;;;;;;;;5047154;28;19924;-70
2024/03/11 11:39:06;;;;;;;;;;;;;;;;;;5048605;28;20008;-70
2024/03/11 11:41:34;;;;;;;;;;;;;;;;;;5045177;28;19909;-70
2024/03/11 11:44:00;;;;;;;;;;;;;;;;;;5050412;28;19909;-69
2024/03/11 11:46:26;;;;;;;;;;;;;;;;;;5049135;28;19916;-67
2024/03/11 11:48:52;;;;;;;;;;;;;;;;;;5050205;28;20026;-67
2024/03/11 11:52:42;;;;;;;;;;;;;;;;;;5087179;27;20416;-69
2024/03/11 11:56:32;;;;;;;;;;;;;;;;;;5116981;27;20381;-69
2024/03/11 11:58:58;;;;;;;;;;;;;;;;;;5088405;28;19919;-69
2024/03/11 12:01:24;;;;;;;;;;;;;;;;;;5082515;28;20414;-70
2024/03/11 12:03:50;;;;;;;;;;;;;;;;;;5079182;28;19916;-69
2024/03/11 12:06:19;;;;;;;;;;;;;;;;;;5074771;28;19963;-69
2024/03/11 12:08:47;;;;;;;;;;;;;;;;;;5076321;28;19927;-69
2024/03/11 12:11:14;;;;;;;;;;;;;;;;;;5089188;28;20299;-69
2024/03/11 12:13:41;;;;;;;;;;;;;;;;;;5089187;28;19916;-69
2024/03/11 12:16:20;;;;;;;;;;;;;;;;;;5099199;27;19921;-70
2024/03/11 12:18:56;;;;;;;;;;;;;;;;;;5094188;27;19917;-67
2024/03/11 12:22:47;;;;;;;;;;;;;;;;;;5091198;27;19940;-70
2024/03/11 12:26:45;;;;;;;;;;;;;;;;;;5093626;27;19928;-69
2024/03/11 12:34:55;;;;;;;;;;;;;;;;;;5080727;27;20312;-69
2024/03/11 12:43:51;;;;;;;;;;;;;;;;;;5126507;27;20002;-74
2024/03/11 12:46:32;;;;;;;;;;;;;;;;;;5083073;28;20007;-72
2024/03/11 12:48:58;;;;;;;;;;;;;;;;;;5108269;28;19912;-72
2024/03/11 12:51:24;;;;;;;;;;;;;;;;;;5096140;28;19914;-73
2024/03/11 12:55:24;;;;;;;;;;;;;;;;;;5100730;27;19912;-71
2024/03/11 13:00:10;;;;;;;;;;;;;;;;;;5101468;27;19921;-71
2024/03/11 13:02:36;;;;;;;;;;;;;;;;;;5068605;28;19912;-71
2024/03/11 13:05:02;;;;;;;;;;;;;;;;;;5068565;28;19957;-73
2024/03/11 13:07:29;;;;;;;;;;;;;;;;;;5070013;28;20320;-72
2024/03/11 13:09:55;;;;;;;;;;;;;;;;;;5069543;28;19955;-71
2024/03/11 13:12:21;;;;;;;;;;;;;;;;;;5069813;28;19913;-71
2024/03/11 13:17:18;;;;;;;;;;;;;;;;;;5121691;27;19962;-69
2024/03/11 13:19:45;;;;;;;;;;;;;;;;;;5087340;28;19919;-71
2024/03/11 13:22:19;;;;;;;;;;;;;;;;;;5072983;28;19970;-69
2024/03/11 13:24:45;;;;;;;;;;;;;;;;;;5068577;28;20030;-69
2024/03/11 13:27:11;;;;;;;;;;;;;;;;;;5067207;28;20010;-70
2024/03/11 13:29:37;;;;;;;;;;;;;;;;;;5069643;28;20489;-69
2024/03/11 13:32:07;;;;;;;;;;;;;;;;;;5072461;28;20391;-68
2024/03/11 13:34:33;;;;;;;;;;;;;;;;;;5066585;28;19923;-72
2024/03/11 13:36:59;;;;;;;;;;;;;;;;;;5056758;28;20276;-72
2024/03/11 13:39:36;;;;;;;;;;;;;;;;;;5067629;28;20016;-72
2024/03/11 13:42:02;;;;;;;;;;;;;;;;;;5048929;28;20063;-70
2024/03/11 13:44:28;;;;;;;;;;;;;;;;;;5059385;28;19992;-70
2024/03/11 13:46:54;;;;;;;;;;;;;;;;;;5068604;28;19916;-71
2024/03/11 13:49:22;;;;;;;;;;;;;;;;;;5071114;28;20293;-71
2024/03/11 13:51:49;;;;;;;;;;;;;;;;;;5051046;28;20433;-72
2024/03/11 13:54:15;;;;;;;;;;;;;;;;;;5049183;28;19913;-71
2024/03/11 13:56:41;;;;;;;;;;;;;;;;;;5068816;28;19924;-70
2024/03/11 13:59:06;;;;;;;;;;;;;;;;;;5068209;28;19912;-71
2024/03/11 14:01:32;;;;;;;;;;;;;;;;;;5069386;28;20288;-72
2024/03/11 14:03:59;;;;;;;;;;;;;;;;;;5069912;28;20280;-72
2024/03/11 14:06:25;;;;;;;;;;;;;;;;;;5069559;28;19913;-71
2024/03/11 14:08:51;;;;;;;;;;;;;;;;;;5067120;28;19913;-71
2024/03/11 14:11:18;;;;;;;;;;;;;;;;;;5068846;28;19909;-71
2024/03/11 14:13:44;;;;;;;;;;;;;;;;;;5067780;28;19970;-71
2024/03/11 14:16:11;;;;;;;;;;;;;;;;;;5067959;28;20335;-72
2024/03/11 14:18:38;;;;;;;;;;;;;;;;;;5068329;28;19913;-71
2024/03/11 14:21:08;;;;;;;;;;;;;;;;;;5067913;28;20322;-71
2024/03/11 14:23:34;;;;;;;;;;;;;;;;;;5069639;28;19962;-70
2024/03/11 14:26:01;;;;;;;;;;;;;;;;;;5069327;28;19908;-71
2024/03/11 14:28:28;;;;;;;;;;;;;;;;;;5056075;28;19912;-71
2024/03/11 14:30:56;;;;;;;;;;;;;;;;;;5056639;28;19959;-71
2024/03/11 14:33:23;;;;;;;;;;;;;;;;;;5056041;28;19952;-71
2024/03/11 14:35:49;;;;;;;;;;;;;;;;;;5056330;28;20303;-71
2024/03/11 14:38:15;;;;;;;;;;;;;;;;;;5056567;28;20004;-71
2024/03/11 14:40:45;;;;;;;;;;;;;;;;;;5056061;28;20273;-72
2024/03/11 14:43:12;;;;;;;;;;;;;;;;;;5056334;28;19909;-71
2024/03/11 14:45:38;;;;;;;;;;;;;;;;;;5056215;28;20334;-72
2024/03/11 14:48:09;;;;;;;;;;;;;;;;;;5055695;28;19909;-71
2024/03/11 14:50:36;;;;;;;;;;;;;;;;;;5056461;28;20018;-72
2024/03/11 14:53:06;;;;;;;;;;;;;;;;;;5055972;28;19909;-72
2024/03/11 14:55:40;;;;;;;;;;;;;;;;;;5055671;28;19959;-72
2024/03/11 14:58:09;;;;;;;;;;;;;;;;;;5056017;28;19917;-72
2024/03/11 15:00:35;;;;;;;;;;;;;;;;;;5056002;28;19995;-72
2024/03/11 15:03:02;;;;;;;;;;;;;;;;;;5055546;28;19931;-72
2024/03/11 15:05:29;;;;;;;;;;;;;;;;;;5055887;28;19909;-72
2024/03/11 15:07:58;;;;;;;;;;;;;;;;;;5055844;28;20296;-72
2024/03/11 15:10:24;;;;;;;;;;;;;;;;;;5055332;28;19908;-72
2024/03/11 15:12:51;;;;;;;;;;;;;;;;;;5055664;28;19916;-71
2024/03/11 15:15:17;;;;;;;;;;;;;;;;;;5055295;28;19921;-71
2024/03/11 15:17:43;;;;;;;;;;;;;;;;;;5055558;28;19909;-72
2024/03/11 15:20:09;;;;;;;;;;;;;;;;;;5055562;28;20057;-72
2024/03/11 15:22:36;;;;;;;;;;;;;;;;;;5055212;28;19908;-71
2024/03/11 15:25:04;;;;;;;;;;;;;;;;;;5055530;28;20289;-71
2024/03/11 15:27:30;;;;;;;;;;;;;;;;;;5055526;28;19916;-71
2024/03/11 15:29:56;;;;;;;;;;;;;;;;;;5054963;28;20296;-71
2024/03/11 15:32:22;;;;;;;;;;;;;;;;;;5055410;28;20310;-71
2024/03/11 15:34:48;;;;;;;;;;;;;;;;;;5055295;28;19912;-71
2024/03/11 15:37:14;;;;;;;;;;;;;;;;;;5054974;28;19925;-71
2024/03/11 15:39:44;;;;;;;;;;;;;;;;;;5052948;28;19913;-71
2024/03/11 15:42:10;;;;;;;;;;;;;;;;;;5055151;28;19913;-72
2024/03/11 15:44:36;;;;;;;;;;;;;;;;;;5054706;28;19913;-73
2024/03/11 15:47:05;;;;;;;;;;;;;;;;;;5054946;28;19956;-73
2024/03/11 15:49:32;;;;;;;;;;;;;;;;;;5055049;28;19908;-73
2024/03/11 15:51:58;;;;;;;;;;;;;;;;;;5053284;28;19965;-73
2024/03/11 15:54:24;;;;;;;;;;;;;;;;;;5054807;28;19908;-73
2024/03/11 15:56:50;;;;;;;;;;;;;;;;;;5053480;28;19924;-72
2024/03/11 15:59:17;;;;;;;;;;;;;;;;;;5054434;28;19920;-73
2024/03/11 16:01:47;;;;;;;;;;;;;;;;;;5054719;28;19955;-72
2024/03/11 16:04:13;;;;;;;;;;;;;;;;;;5053330;28;19916;-72
2024/03/11 16:06:40;;;;;;;;;;;;;;;;;;5054254;28;19909;-71
2024/03/11 16:09:10;;;;;;;;;;;;;;;;;;5054835;28;19931;-73
2024/03/11 16:11:36;;;;;;;;;;;;;;;;;;5053231;28;19920;-72
2024/03/11 16:14:02;;;;;;;;;;;;;;;;;;5053264;28;19908;-73
2024/03/11 16:16:28;;;;;;;;;;;;;;;;;;5054185;28;20011;-73
2024/03/11 16:18:56;;;;;;;;;;;;;;;;;;5054064;28;19917;-73
2024/03/11 16:21:22;;;;;;;;;;;;;;;;;;5054517;28;19916;-72
2024/03/11 16:23:47;;;;;;;;;;;;;;;;;;5054373;28;19909;-72
2024/03/11 16:26:14;;;;;;;;;;;;;;;;;;5053818;28;19955;-73
2024/03/11 16:28:42;;;;;;;;;;;;;;;;;;5072178;28;19909;-72
2024/03/11 16:31:09;;;;;;;;;;;;;;;;;;5074232;28;19913;-71
2024/03/11 16:33:36;;;;;;;;;;;;;;;;;;5074162;28;19908;-72
2024/03/11 16:36:03;;;;;;;;;;;;;;;;;;5073732;28;19912;-72
2024/03/11 16:38:30;;;;;;;;;;;;;;;;;;5074267;28;19915;-72
2024/03/11 16:40:56;;;;;;;;;;;;;;;;;;5073735;28;19916;-72
2024/03/11 16:43:22;;;;;;;;;;;;;;;;;;5074032;28;19927;-73
2024/03/11 16:45:52;;;;;;;;;;;;;;;;;;5106556;28;19909;-72
2024/03/11 16:48:18;;;;;;;;;;;;;;;;;;5073590;28;20285;-73
2024/03/11 16:50:45;;;;;;;;;;;;;;;;;;5073706;28;20114;-73
2024/03/11 16:53:11;;;;;;;;;;;;;;;;;;5073988;28;19909;-73
2024/03/11 16:55:40;;;;;;;;;;;;;;;;;;5106072;28;20372;-72
2024/03/11 16:58:07;;;;;;;;;;;;;;;;;;5073907;28;19991;-72
2024/03/11 17:00:33;;;;;;;;;;;;;;;;;;5106418;28;19916;-74
2024/03/11 17:02:59;;;;;;;;;;;;;;;;;;5106020;28;19915;-72
2024/03/11 17:05:27;;;;;;;;;;;;;;;;;;5073857;28;19908;-74
2024/03/11 17:07:54;;;;;;;;;;;;;;;;;;5073450;28;19909;-74